sensor_id;sensor_type;location;lat;lon;timestamp;pressure;altitude;pressure_sealevel;temperature;humidity
68169;BME280;54981;50.206;15.978;2023-08-24T00:00:46;99122.34;;;16.72;nan
68169;BME280;54981;50.206;15.978;2023-08-24T00:03:16;99131.56;;;16.80;nan
68169;BME280;54981;50.206;15.978;2023-08-24T00:05:47;99131.84;;;16.89;nan
68169;BME280;54981;50.206;15.978;2023-08-24T00:08:17;99130.59;;;16.93;nan
68169;BME280;54981;50.206;15.978;2023-08-24T00:10:48;99136.47;;;16.98;nan
68169;BME280;54981;50.206;15.978;2023-08-24T00:13:18;99130.50;;;17.06;nan
68169;BME280;54981;50.206;15.978;2023-08-24T00:15:49;99127.69;;;17.07;nan
68169;BME280;54981;50.206;15.978;2023-08-24T00:18:19;99134.16;;;17.04;nan
68169;BME280;54981;50.206;15.978;2023-08-24T00:20:51;99122.81;;;17.01;nan
68169;BME280;54981;50.206;15.978;2023-08-24T00:23:22;99129.88;;;17.02;nan
68169;BME280;54981;50.206;15.978;2023-08-24T00:25:52;99132.56;;;17.02;nan
68169;BME280;54981;50.206;15.978;2023-08-24T00:28:23;99130.97;;;16.99;nan
68169;BME280;54981;50.206;15.978;2023-08-24T00:30:53;99127.78;;;16.94;nan
68169;BME280;54981;50.206;15.978;2023-08-24T00:33:23;99131.31;;;16.83;nan
68169;BME280;54981;50.206;15.978;2023-08-24T00:35:59;99125.53;;;16.77;nan
68169;BME280;54981;50.206;15.978;2023-08-24T00:38:29;99126.59;;;16.63;nan
68169;BME280;54981;50.206;15.978;2023-08-24T00:41:00;99126.09;;;16.58;nan
68169;BME280;54981;50.206;15.978;2023-08-24T00:43:31;99134.28;;;16.56;nan
68169;BME280;54981;50.206;15.978;2023-08-24T00:46:01;99137.81;;;16.57;nan
68169;BME280;54981;50.206;15.978;2023-08-24T00:48:34;99135.38;;;16.54;nan
68169;BME280;54981;50.206;15.978;2023-08-24T00:51:04;99128.16;;;16.54;nan
68169;BME280;54981;50.206;15.978;2023-08-24T00:53:35;99132.56;;;16.55;nan
68169;BME280;54981;50.206;15.978;2023-08-24T00:56:06;99134.41;;;16.55;nan
68169;BME280;54981;50.206;15.978;2023-08-24T00:58:38;99132.69;;;16.54;nan
68169;BME280;54981;50.206;15.978;2023-08-24T01:01:08;99137.28;;;16.40;nan
68169;BME280;54981;50.206;15.978;2023-08-24T01:03:39;99130.09;;;16.41;nan
68169;BME280;54981;50.206;15.978;2023-08-24T01:06:09;99129.94;;;16.43;nan
68169;BME280;54981;50.206;15.978;2023-08-24T01:08:39;99133.63;;;16.42;nan
68169;BME280;54981;50.206;15.978;2023-08-24T01:13:53;99133.75;;;16.16;nan
68169;BME280;54981;50.206;15.978;2023-08-24T01:16:29;99131.47;;;16.23;nan
68169;BME280;54981;50.206;15.978;2023-08-24T01:19:01;99139.66;;;16.21;nan
68169;BME280;54981;50.206;15.978;2023-08-24T01:21:32;99139.66;;;16.21;nan
68169;BME280;54981;50.206;15.978;2023-08-24T01:26:39;99139.75;;;16.19;nan
68169;BME280;54981;50.206;15.978;2023-08-24T01:29:11;99145.47;;;16.15;nan
68169;BME280;54981;50.206;15.978;2023-08-24T01:31:41;99137.06;;;16.19;nan
68169;BME280;54981;50.206;15.978;2023-08-24T01:34:12;99140.38;;;16.23;nan
68169;BME280;54981;50.206;15.978;2023-08-24T01:36:43;99144.56;;;16.27;nan
68169;BME280;54981;50.206;15.978;2023-08-24T01:39:24;99136.09;;;16.21;nan
68169;BME280;54981;50.206;15.978;2023-08-24T01:42:01;99139.88;;;16.18;nan
68169;BME280;54981;50.206;15.978;2023-08-24T01:44:33;99137.88;;;16.09;nan
68169;BME280;54981;50.206;15.978;2023-08-24T01:47:07;99129.59;;;16.12;nan
68169;BME280;54981;50.206;15.978;2023-08-24T01:49:41;99136.44;;;16.16;nan
68169;BME280;54981;50.206;15.978;2023-08-24T01:52:13;99127.66;;;16.14;nan
68169;BME280;54981;50.206;15.978;2023-08-24T01:54:44;99129.38;;;16.15;nan
68169;BME280;54981;50.206;15.978;2023-08-24T01:57:15;99130.44;;;16.12;nan
68169;BME280;54981;50.206;15.978;2023-08-24T01:59:45;99123.34;;;16.11;nan
68169;BME280;54981;50.206;15.978;2023-08-24T02:02:16;99124.22;;;16.12;nan
68169;BME280;54981;50.206;15.978;2023-08-24T02:04:47;99125.59;;;15.93;nan
68169;BME280;54981;50.206;15.978;2023-08-24T02:07:17;99119.47;;;15.91;nan
68169;BME280;54981;50.206;15.978;2023-08-24T02:09:48;99123.88;;;15.92;nan
68169;BME280;54981;50.206;15.978;2023-08-24T02:12:18;99122.16;;;15.91;nan
68169;BME280;54981;50.206;15.978;2023-08-24T02:14:48;99125.81;;;15.90;nan
68169;BME280;54981;50.206;15.978;2023-08-24T02:17:19;99120.22;;;15.93;nan
68169;BME280;54981;50.206;15.978;2023-08-24T02:19:49;99114.00;;;15.93;nan
68169;BME280;54981;50.206;15.978;2023-08-24T02:22:20;99120.13;;;15.95;nan
68169;BME280;54981;50.206;15.978;2023-08-24T02:24:50;99121.72;;;15.97;nan
68169;BME280;54981;50.206;15.978;2023-08-24T02:27:21;99119.13;;;15.96;nan
68169;BME280;54981;50.206;15.978;2023-08-24T02:29:51;99116.03;;;15.89;nan
68169;BME280;54981;50.206;15.978;2023-08-24T02:32:22;99116.72;;;15.80;nan
68169;BME280;54981;50.206;15.978;2023-08-24T02:34:52;99114.03;;;15.80;nan
68169;BME280;54981;50.206;15.978;2023-08-24T02:37:22;99111.56;;;15.77;nan
68169;BME280;54981;50.206;15.978;2023-08-24T02:39:53;99120.03;;;15.84;nan
68169;BME280;54981;50.206;15.978;2023-08-24T02:42:23;99123.53;;;15.73;nan
68169;BME280;54981;50.206;15.978;2023-08-24T02:44:53;99122.84;;;15.69;nan
68169;BME280;54981;50.206;15.978;2023-08-24T02:47:24;99110.41;;;15.68;nan
68169;BME280;54981;50.206;15.978;2023-08-24T02:49:54;99112.22;;;15.68;nan
68169;BME280;54981;50.206;15.978;2023-08-24T02:52:25;99109.66;;;15.66;nan
68169;BME280;54981;50.206;15.978;2023-08-24T02:54:55;99107.81;;;15.67;nan
68169;BME280;54981;50.206;15.978;2023-08-24T02:57:25;99113.94;;;15.69;nan
68169;BME280;54981;50.206;15.978;2023-08-24T02:59:56;99119.22;;;15.70;nan
68169;BME280;54981;50.206;15.978;2023-08-24T03:02:26;99109.88;;;15.63;nan
68169;BME280;54981;50.206;15.978;2023-08-24T03:04:56;99114.84;;;15.57;nan
68169;BME280;54981;50.206;15.978;2023-08-24T03:07:27;99104.44;;;15.52;nan
68169;BME280;54981;50.206;15.978;2023-08-24T03:09:57;99107.31;;;15.49;nan
68169;BME280;54981;50.206;15.978;2023-08-24T03:12:27;99103.78;;;15.48;nan
68169;BME280;54981;50.206;15.978;2023-08-24T03:14:58;99109.06;;;15.50;nan
68169;BME280;54981;50.206;15.978;2023-08-24T03:17:28;99112.25;;;15.55;nan
68169;BME280;54981;50.206;15.978;2023-08-24T03:19:58;99107.88;;;15.54;nan
68169;BME280;54981;50.206;15.978;2023-08-24T03:22:29;99103.78;;;15.48;nan
68169;BME280;54981;50.206;15.978;2023-08-24T03:24:59;99108.22;;;15.49;nan
68169;BME280;54981;50.206;15.978;2023-08-24T03:27:30;99106.38;;;15.50;nan
68169;BME280;54981;50.206;15.978;2023-08-24T03:30:00;99109.91;;;15.50;nan
68169;BME280;54981;50.206;15.978;2023-08-24T03:32:31;99102.31;;;15.44;nan
68169;BME280;54981;50.206;15.978;2023-08-24T03:35:01;99117.34;;;15.34;nan
68169;BME280;54981;50.206;15.978;2023-08-24T03:37:33;99115.22;;;15.26;nan
68169;BME280;54981;50.206;15.978;2023-08-24T03:40:04;99110.50;;;15.30;nan
68169;BME280;54981;50.206;15.978;2023-08-24T03:42:36;99113.19;;;15.30;nan
68169;BME280;54981;50.206;15.978;2023-08-24T03:45:06;99118.44;;;15.31;nan
68169;BME280;54981;50.206;15.978;2023-08-24T03:47:37;99121.25;;;15.30;nan
68169;BME280;54981;50.206;15.978;2023-08-24T03:50:08;99123.38;;;15.25;nan
68169;BME280;54981;50.206;15.978;2023-08-24T03:52:38;99127.13;;;15.22;nan
68169;BME280;54981;50.206;15.978;2023-08-24T03:55:09;99115.22;;;15.26;nan
68169;BME280;54981;50.206;15.978;2023-08-24T03:57:39;99117.91;;;15.26;nan
68169;BME280;54981;50.206;15.978;2023-08-24T04:00:10;99124.91;;;15.16;nan
68169;BME280;54981;50.206;15.978;2023-08-24T04:02:41;99120.47;;;15.15;nan
68169;BME280;54981;50.206;15.978;2023-08-24T04:05:12;99123.16;;;15.15;nan
68169;BME280;54981;50.206;15.978;2023-08-24T04:07:43;99132.84;;;14.92;nan
68169;BME280;54981;50.206;15.978;2023-08-24T04:10:13;99136.47;;;14.78;nan
68169;BME280;54981;50.206;15.978;2023-08-24T04:12:43;99147.88;;;14.82;nan
68169;BME280;54981;50.206;15.978;2023-08-24T04:15:14;99137.03;;;14.96;nan
68169;BME280;54981;50.206;15.978;2023-08-24T04:17:44;99148.28;;;15.01;nan
68169;BME280;54981;50.206;15.978;2023-08-24T04:20:15;99144.31;;;15.07;nan
68169;BME280;54981;50.206;15.978;2023-08-24T04:22:46;99138.53;;;15.13;nan
68169;BME280;54981;50.206;15.978;2023-08-24T04:25:16;99141.63;;;15.20;nan
68169;BME280;54981;50.206;15.978;2023-08-24T04:27:46;99139.47;;;15.25;nan
68169;BME280;54981;50.206;15.978;2023-08-24T04:30:17;99141.63;;;15.32;nan
68169;BME280;54981;50.206;15.978;2023-08-24T04:32:47;99139.13;;;15.42;nan
68169;BME280;54981;50.206;15.978;2023-08-24T04:35:18;99135.03;;;15.49;nan
68169;BME280;54981;50.206;15.978;2023-08-24T04:37:48;99140.69;;;15.58;nan
68169;BME280;54981;50.206;15.978;2023-08-24T04:40:19;99144.75;;;15.63;nan
68169;BME280;54981;50.206;15.978;2023-08-24T04:42:49;99150.47;;;15.71;nan
68169;BME280;54981;50.206;15.978;2023-08-24T04:45:19;99146.47;;;15.77;nan
68169;BME280;54981;50.206;15.978;2023-08-24T04:47:50;99154.84;;;15.85;nan
68169;BME280;54981;50.206;15.978;2023-08-24T04:50:20;99149.00;;;15.91;nan
68169;BME280;54981;50.206;15.978;2023-08-24T04:52:51;99152.53;;;15.92;nan
68169;BME280;54981;50.206;15.978;2023-08-24T04:55:22;99153.97;;;15.85;nan
68169;BME280;54981;50.206;15.978;2023-08-24T04:57:53;99148.31;;;15.76;nan
68169;BME280;54981;50.206;15.978;2023-08-24T05:00:24;99148.78;;;15.94;nan
68169;BME280;54981;50.206;15.978;2023-08-24T05:02:54;99149.16;;;16.14;nan
68169;BME280;54981;50.206;15.978;2023-08-24T05:05:25;99149.31;;;16.24;nan
68169;BME280;54981;50.206;15.978;2023-08-24T05:07:55;99148.00;;;16.29;nan
68169;BME280;54981;50.206;15.978;2023-08-24T05:10:30;99148.06;;;16.52;nan
68169;BME280;54981;50.206;15.978;2023-08-24T05:13:00;99150.88;;;16.50;nan
68169;BME280;54981;50.206;15.978;2023-08-24T05:15:30;99151.06;;;16.36;nan
68169;BME280;54981;50.206;15.978;2023-08-24T05:18:01;99162.84;;;16.22;nan
68169;BME280;54981;50.206;15.978;2023-08-24T05:20:32;99159.34;;;16.33;nan
68169;BME280;54981;50.206;15.978;2023-08-24T05:23:02;99153.34;;;16.29;nan
68169;BME280;54981;50.206;15.978;2023-08-24T05:25:33;99154.84;;;16.33;nan
68169;BME280;54981;50.206;15.978;2023-08-24T05:28:04;99161.16;;;16.56;nan
68169;BME280;54981;50.206;15.978;2023-08-24T05:30:34;99165.00;;;16.65;nan
68169;BME280;54981;50.206;15.978;2023-08-24T05:33:05;99155.97;;;16.77;nan
68169;BME280;54981;50.206;15.978;2023-08-24T05:35:35;99159.97;;;16.96;nan
68169;BME280;54981;50.206;15.978;2023-08-24T05:38:05;99159.38;;;17.03;nan
68169;BME280;54981;50.206;15.978;2023-08-24T05:40:36;99153.75;;;17.18;nan
68169;BME280;54981;50.206;15.978;2023-08-24T05:43:10;99159.25;;;17.28;nan
68169;BME280;54981;50.206;15.978;2023-08-24T05:45:40;99157.41;;;17.17;nan
68169;BME280;54981;50.206;15.978;2023-08-24T05:48:13;99151.66;;;17.21;nan
68169;BME280;54981;50.206;15.978;2023-08-24T05:50:45;99150.94;;;17.31;nan
68169;BME280;54981;50.206;15.978;2023-08-24T05:53:16;99149.22;;;17.52;nan
68169;BME280;54981;50.206;15.978;2023-08-24T05:55:46;99151.78;;;17.76;nan
68169;BME280;54981;50.206;15.978;2023-08-24T05:58:16;99142.81;;;17.87;nan
68169;BME280;54981;50.206;15.978;2023-08-24T06:00:47;99140.13;;;17.98;nan
68169;BME280;54981;50.206;15.978;2023-08-24T06:03:17;99140.66;;;18.24;nan
68169;BME280;54981;50.206;15.978;2023-08-24T06:05:47;99134.84;;;18.40;nan
68169;BME280;54981;50.206;15.978;2023-08-24T06:08:18;99137.53;;;18.61;nan
68169;BME280;54981;50.206;15.978;2023-08-24T06:10:48;99131.91;;;18.64;nan
68169;BME280;54981;50.206;15.978;2023-08-24T06:13:18;99133.22;;;18.70;nan
68169;BME280;54981;50.206;15.978;2023-08-24T06:15:49;99127.97;;;18.89;nan
68169;BME280;54981;50.206;15.978;2023-08-24T06:18:20;99134.66;;;19.16;nan
68169;BME280;54981;50.206;15.978;2023-08-24T06:20:50;99133.31;;;19.31;nan
68169;BME280;54981;50.206;15.978;2023-08-24T06:23:20;99134.34;;;19.40;nan
68169;BME280;54981;50.206;15.978;2023-08-24T06:25:51;99131.50;;;19.42;nan
68169;BME280;54981;50.206;15.978;2023-08-24T06:28:22;99133.84;;;19.56;nan
68169;BME280;54981;50.206;15.978;2023-08-24T06:30:54;99123.72;;;19.48;nan
68169;BME280;54981;50.206;15.978;2023-08-24T06:33:28;99132.19;;;19.74;nan
68169;BME280;54981;50.206;15.978;2023-08-24T06:36:01;99119.75;;;20.03;nan
68169;BME280;54981;50.206;15.978;2023-08-24T06:38:32;99122.31;;;20.04;nan
68169;BME280;54981;50.206;15.978;2023-08-24T06:41:03;99111.22;;;20.27;nan
68169;BME280;54981;50.206;15.978;2023-08-24T06:43:33;99121.75;;;20.30;nan
68169;BME280;54981;50.206;15.978;2023-08-24T06:46:03;99129.19;;;20.47;nan
68169;BME280;54981;50.206;15.978;2023-08-24T06:48:34;99130.31;;;20.54;nan
68169;BME280;54981;50.206;15.978;2023-08-24T06:51:05;99125.63;;;20.56;nan
68169;BME280;54981;50.206;15.978;2023-08-24T06:53:35;99126.50;;;20.57;nan
68169;BME280;54981;50.206;15.978;2023-08-24T06:56:06;99124.63;;;20.77;nan
68169;BME280;54981;50.206;15.978;2023-08-24T06:58:36;99120.75;;;20.89;nan
68169;BME280;54981;50.206;15.978;2023-08-24T07:01:06;99122.59;;;20.98;nan
68169;BME280;54981;50.206;15.978;2023-08-24T07:03:38;99121.09;;;21.14;nan
68169;BME280;54981;50.206;15.978;2023-08-24T07:06:09;99131.72;;;21.35;nan
68169;BME280;54981;50.206;15.978;2023-08-24T07:08:42;99122.44;;;21.47;nan
68169;BME280;54981;50.206;15.978;2023-08-24T07:11:12;99126.91;;;21.66;nan
68169;BME280;54981;50.206;15.978;2023-08-24T07:13:44;99116.28;;;21.82;nan
68169;BME280;54981;50.206;15.978;2023-08-24T07:16:15;99119.91;;;21.91;nan
68169;BME280;54981;50.206;15.978;2023-08-24T07:18:46;99120.66;;;22.11;nan
68169;BME280;54981;50.206;15.978;2023-08-24T07:21:16;99117.31;;;21.99;nan
68169;BME280;54981;50.206;15.978;2023-08-24T07:23:47;99110.75;;;22.38;nan
68169;BME280;54981;50.206;15.978;2023-08-24T07:26:18;99107.00;;;22.74;nan
68169;BME280;54981;50.206;15.978;2023-08-24T07:28:48;99103.78;;;22.97;nan
68169;BME280;54981;50.206;15.978;2023-08-24T07:31:18;99112.16;;;22.86;nan
68169;BME280;54981;50.206;15.978;2023-08-24T07:33:49;99105.00;;;23.29;nan
68169;BME280;54981;50.206;15.978;2023-08-24T07:36:19;99106.00;;;23.62;nan
68169;BME280;54981;50.206;15.978;2023-08-24T07:38:50;99104.97;;;23.63;nan
68169;BME280;54981;50.206;15.978;2023-08-24T07:41:22;99099.56;;;23.71;nan
68169;BME280;54981;50.206;15.978;2023-08-24T07:43:53;99095.38;;;23.77;nan
68169;BME280;54981;50.206;15.978;2023-08-24T07:46:23;99082.19;;;23.98;nan
68169;BME280;54981;50.206;15.978;2023-08-24T07:48:53;99092.03;;;23.99;nan
68169;BME280;54981;50.206;15.978;2023-08-24T07:51:24;99085.94;;;24.14;nan
68169;BME280;54981;50.206;15.978;2023-08-24T07:53:55;99094.47;;;24.43;nan
68169;BME280;54981;50.206;15.978;2023-08-24T07:56:25;99093.13;;;24.80;nan
68169;BME280;54981;50.206;15.978;2023-08-24T07:58:55;99097.06;;;24.61;nan
68169;BME280;54981;50.206;15.978;2023-08-24T08:01:26;99085.00;;;24.56;nan
68169;BME280;54981;50.206;15.978;2023-08-24T08:03:56;99087.50;;;24.82;nan
68169;BME280;54981;50.206;15.978;2023-08-24T08:06:27;99095.81;;;25.21;nan
68169;BME280;54981;50.206;15.978;2023-08-24T08:08:57;99093.47;;;25.58;nan
68169;BME280;54981;50.206;15.978;2023-08-24T08:11:28;99084.53;;;25.72;nan
68169;BME280;54981;50.206;15.978;2023-08-24T08:13:58;99092.41;;;25.11;nan
68169;BME280;54981;50.206;15.978;2023-08-24T08:16:29;99095.41;;;25.41;nan
68169;BME280;54981;50.206;15.978;2023-08-24T08:18:59;99090.84;;;25.72;nan
68169;BME280;54981;50.206;15.978;2023-08-24T08:21:29;99099.84;;;25.73;nan
68169;BME280;54981;50.206;15.978;2023-08-24T08:24:00;99100.50;;;25.91;nan
68169;BME280;54981;50.206;15.978;2023-08-24T08:26:30;99099.31;;;25.78;nan
68169;BME280;54981;50.206;15.978;2023-08-24T08:29:01;99098.63;;;25.84;nan
68169;BME280;54981;50.206;15.978;2023-08-24T08:31:31;99107.50;;;26.40;nan
68169;BME280;54981;50.206;15.978;2023-08-24T08:34:02;99102.91;;;26.64;nan
68169;BME280;54981;50.206;15.978;2023-08-24T08:36:34;99098.88;;;26.51;nan
68169;BME280;54981;50.206;15.978;2023-08-24T08:39:04;99103.41;;;26.36;nan
68169;BME280;54981;50.206;15.978;2023-08-24T08:41:42;99102.31;;;25.99;nan
68169;BME280;54981;50.206;15.978;2023-08-24T08:44:14;99094.94;;;26.08;nan
68169;BME280;54981;50.206;15.978;2023-08-24T08:46:46;99100.75;;;26.28;nan
68169;BME280;54981;50.206;15.978;2023-08-24T08:49:17;99097.75;;;26.69;nan
68169;BME280;54981;50.206;15.978;2023-08-24T08:51:49;99100.25;;;26.93;nan
68169;BME280;54981;50.206;15.978;2023-08-24T08:54:21;99089.53;;;27.07;nan
68169;BME280;54981;50.206;15.978;2023-08-24T08:56:52;99093.91;;;27.31;nan
68169;BME280;54981;50.206;15.978;2023-08-24T08:59:23;99092.81;;;27.17;nan
68169;BME280;54981;50.206;15.978;2023-08-24T09:01:54;99090.25;;;26.86;nan
68169;BME280;54981;50.206;15.978;2023-08-24T09:04:24;99094.09;;;26.91;nan
68169;BME280;54981;50.206;15.978;2023-08-24T09:06:55;99094.63;;;26.26;nan
68169;BME280;54981;50.206;15.978;2023-08-24T09:09:26;99086.28;;;26.88;nan
68169;BME280;54981;50.206;15.978;2023-08-24T09:11:57;99082.94;;;27.16;nan
68169;BME280;54981;50.206;15.978;2023-08-24T09:14:28;99082.84;;;27.69;nan
68169;BME280;54981;50.206;15.978;2023-08-24T09:16:58;99087.19;;;28.14;nan
68169;BME280;54981;50.206;15.978;2023-08-24T09:19:29;99079.38;;;28.54;nan
68169;BME280;54981;50.206;15.978;2023-08-24T09:22:01;99075.47;;;28.42;nan
68169;BME280;54981;50.206;15.978;2023-08-24T09:24:34;99077.25;;;27.92;nan
68169;BME280;54981;50.206;15.978;2023-08-24T09:27:18;99068.00;;;27.93;nan
68169;BME280;54981;50.206;15.978;2023-08-24T09:29:50;99061.91;;;28.12;nan
68169;BME280;54981;50.206;15.978;2023-08-24T09:32:24;99059.44;;;28.17;nan
68169;BME280;54981;50.206;15.978;2023-08-24T09:35:03;99056.69;;;28.39;nan
68169;BME280;54981;50.206;15.978;2023-08-24T09:37:36;99051.06;;;28.25;nan
68169;BME280;54981;50.206;15.978;2023-08-24T09:40:07;99044.19;;;28.51;nan
68169;BME280;54981;50.206;15.978;2023-08-24T09:42:39;99043.75;;;28.76;nan
68169;BME280;54981;50.206;15.978;2023-08-24T09:45:13;99047.47;;;28.96;nan
68169;BME280;54981;50.206;15.978;2023-08-24T09:47:50;99043.47;;;29.27;nan
68169;BME280;54981;50.206;15.978;2023-08-24T09:50:21;99044.28;;;29.21;nan
68169;BME280;54981;50.206;15.978;2023-08-24T09:52:53;99038.34;;;29.11;nan
68169;BME280;54981;50.206;15.978;2023-08-24T09:55:28;99042.34;;;29.15;nan
68169;BME280;54981;50.206;15.978;2023-08-24T09:58:03;99043.69;;;28.97;nan
68169;BME280;54981;50.206;15.978;2023-08-24T10:00:35;99040.06;;;29.18;nan
68169;BME280;54981;50.206;15.978;2023-08-24T10:03:06;99033.31;;;28.93;nan
68169;BME280;54981;50.206;15.978;2023-08-24T10:05:38;99020.03;;;29.18;nan
68169;BME280;54981;50.206;15.978;2023-08-24T10:08:09;99026.53;;;29.17;nan
68169;BME280;54981;50.206;15.978;2023-08-24T10:10:40;99022.81;;;28.68;nan
68169;BME280;54981;50.206;15.978;2023-08-24T10:13:19;99026.63;;;27.66;nan
68169;BME280;54981;50.206;15.978;2023-08-24T10:15:52;99024.97;;;27.87;nan
68169;BME280;54981;50.206;15.978;2023-08-24T10:18:25;99027.28;;;27.53;nan
68169;BME280;54981;50.206;15.978;2023-08-24T10:20:56;99018.59;;;27.65;nan
68169;BME280;54981;50.206;15.978;2023-08-24T10:23:29;99019.34;;;27.73;nan
68169;BME280;54981;50.206;15.978;2023-08-24T10:26:02;99013.00;;;28.09;nan
68169;BME280;54981;50.206;15.978;2023-08-24T10:28:33;99010.78;;;28.41;nan
68169;BME280;54981;50.206;15.978;2023-08-24T10:31:04;99003.28;;;28.28;nan
68169;BME280;54981;50.206;15.978;2023-08-24T10:33:34;99005.66;;;28.59;nan
68169;BME280;54981;50.206;15.978;2023-08-24T10:36:06;99004.38;;;28.83;nan
68169;BME280;54981;50.206;15.978;2023-08-24T10:38:40;99009.94;;;28.97;nan
68169;BME280;54981;50.206;15.978;2023-08-24T10:41:14;99003.41;;;29.33;nan
68169;BME280;54981;50.206;15.978;2023-08-24T10:43:50;99003.06;;;29.49;nan
68169;BME280;54981;50.206;15.978;2023-08-24T10:46:21;99000.78;;;29.11;nan
68169;BME280;54981;50.206;15.978;2023-08-24T10:48:57;98994.09;;;28.92;nan
68169;BME280;54981;50.206;15.978;2023-08-24T10:51:28;98978.63;;;28.78;nan
68169;BME280;54981;50.206;15.978;2023-08-24T10:54:01;98977.53;;;28.72;nan
68169;BME280;54981;50.206;15.978;2023-08-24T10:56:36;98958.72;;;28.62;nan
68169;BME280;54981;50.206;15.978;2023-08-24T10:59:16;98961.56;;;29.11;nan
68169;BME280;54981;50.206;15.978;2023-08-24T11:04:23;98952.97;;;29.95;nan
68169;BME280;54981;50.206;15.978;2023-08-24T11:06:55;98949.41;;;30.34;nan
68169;BME280;54981;50.206;15.978;2023-08-24T11:09:25;98948.13;;;30.50;nan
68169;BME280;54981;50.206;15.978;2023-08-24T11:12:02;98944.31;;;30.45;nan
68169;BME280;54981;50.206;15.978;2023-08-24T11:14:48;98934.75;;;30.81;nan
68169;BME280;54981;50.206;15.978;2023-08-24T11:17:20;98934.19;;;31.24;nan
68169;BME280;54981;50.206;15.978;2023-08-24T11:19:52;98937.13;;;31.35;nan
68169;BME280;54981;50.206;15.978;2023-08-24T11:22:25;98927.78;;;31.43;nan
68169;BME280;54981;50.206;15.978;2023-08-24T11:24:55;98926.41;;;31.66;nan
68169;BME280;54981;50.206;15.978;2023-08-24T11:27:26;98921.97;;;31.58;nan
68169;BME280;54981;50.206;15.978;2023-08-24T11:29:59;98925.91;;;31.75;nan
68169;BME280;54981;50.206;15.978;2023-08-24T11:32:30;98912.38;;;31.74;nan
68169;BME280;54981;50.206;15.978;2023-08-24T11:35:01;98913.16;;;31.81;nan
68169;BME280;54981;50.206;15.978;2023-08-24T11:37:31;98917.84;;;30.70;nan
68169;BME280;54981;50.206;15.978;2023-08-24T11:40:01;98915.63;;;31.12;nan
68169;BME280;54981;50.206;15.978;2023-08-24T11:42:36;98911.94;;;30.87;nan
68169;BME280;54981;50.206;15.978;2023-08-24T11:45:11;98911.81;;;31.13;nan
68169;BME280;54981;50.206;15.978;2023-08-24T11:47:43;98911.25;;;31.50;nan
68169;BME280;54981;50.206;15.978;2023-08-24T11:50:13;98909.78;;;31.79;nan
68169;BME280;54981;50.206;15.978;2023-08-24T11:52:44;98906.34;;;32.15;nan
68169;BME280;54981;50.206;15.978;2023-08-24T11:55:14;98902.47;;;31.98;nan
68169;BME280;54981;50.206;15.978;2023-08-24T11:57:45;98901.66;;;31.59;nan
68169;BME280;54981;50.206;15.978;2023-08-24T12:00:17;98909.09;;;31.58;nan
68169;BME280;54981;50.206;15.978;2023-08-24T12:02:48;98896.88;;;31.41;nan
68169;BME280;54981;50.206;15.978;2023-08-24T12:05:23;98899.44;;;31.36;nan
68169;BME280;54981;50.206;15.978;2023-08-24T12:07:54;98895.13;;;31.15;nan
68169;BME280;54981;50.206;15.978;2023-08-24T12:10:25;98893.97;;;30.84;nan
68169;BME280;54981;50.206;15.978;2023-08-24T12:13:05;98886.78;;;30.76;nan
68169;BME280;54981;50.206;15.978;2023-08-24T12:15:37;98887.75;;;31.02;nan
68169;BME280;54981;50.206;15.978;2023-08-24T12:18:11;98886.56;;;31.30;nan
68169;BME280;54981;50.206;15.978;2023-08-24T12:20:42;98887.03;;;30.55;nan
68169;BME280;54981;50.206;15.978;2023-08-24T12:23:13;98874.38;;;29.67;nan
68169;BME280;54981;50.206;15.978;2023-08-24T12:25:43;98880.72;;;29.75;nan
68169;BME280;54981;50.206;15.978;2023-08-24T12:28:15;98869.31;;;30.18;nan
68169;BME280;54981;50.206;15.978;2023-08-24T12:30:51;98856.19;;;30.53;nan
68169;BME280;54981;50.206;15.978;2023-08-24T12:33:29;98852.09;;;30.69;nan
68169;BME280;54981;50.206;15.978;2023-08-24T12:36:00;98847.84;;;30.86;nan
68169;BME280;54981;50.206;15.978;2023-08-24T12:38:30;98843.72;;;31.09;nan
68169;BME280;54981;50.206;15.978;2023-08-24T12:41:00;98844.84;;;31.33;nan
68169;BME280;54981;50.206;15.978;2023-08-24T12:43:31;98839.34;;;31.96;nan
68169;BME280;54981;50.206;15.978;2023-08-24T12:46:01;98835.44;;;32.47;nan
68169;BME280;54981;50.206;15.978;2023-08-24T12:48:31;98834.91;;;32.76;nan
68169;BME280;54981;50.206;15.978;2023-08-24T12:51:02;98826.50;;;33.07;nan
68169;BME280;54981;50.206;15.978;2023-08-24T12:53:32;98838.59;;;33.37;nan
68169;BME280;54981;50.206;15.978;2023-08-24T12:56:03;98841.63;;;33.47;nan
68169;BME280;54981;50.206;15.978;2023-08-24T12:58:33;98825.16;;;33.70;nan
68169;BME280;54981;50.206;15.978;2023-08-24T13:01:04;98832.66;;;34.17;nan
68169;BME280;54981;50.206;15.978;2023-08-24T13:03:34;98827.47;;;33.97;nan
68169;BME280;54981;50.206;15.978;2023-08-24T13:06:06;98824.84;;;33.97;nan
68169;BME280;54981;50.206;15.978;2023-08-24T13:08:36;98822.09;;;34.38;nan
68169;BME280;54981;50.206;15.978;2023-08-24T13:11:07;98819.41;;;34.54;nan
68169;BME280;54981;50.206;15.978;2023-08-24T13:13:37;98800.06;;;34.54;nan
68169;BME280;54981;50.206;15.978;2023-08-24T13:16:07;98814.72;;;34.63;nan
68169;BME280;54981;50.206;15.978;2023-08-24T13:18:38;98814.41;;;31.84;nan
68169;BME280;54981;50.206;15.978;2023-08-24T13:21:08;98810.41;;;30.78;nan
68169;BME280;54981;50.206;15.978;2023-08-24T13:23:38;98811.03;;;30.02;nan
68169;BME280;54981;50.206;15.978;2023-08-24T13:26:22;98813.97;;;30.07;nan
68169;BME280;54981;50.206;15.978;2023-08-24T13:28:55;98802.03;;;30.60;nan
68169;BME280;54981;50.206;15.978;2023-08-24T13:31:27;98792.16;;;31.29;nan
68169;BME280;54981;50.206;15.978;2023-08-24T13:34:00;98795.28;;;31.96;nan
68169;BME280;54981;50.206;15.978;2023-08-24T13:36:30;98795.22;;;32.40;nan
68169;BME280;54981;50.206;15.978;2023-08-24T13:39:00;98787.16;;;32.01;nan